createdAt,value
2018-07-23T00:00:25.144Z,1000.22
2018-07-23T00:02:18.145Z,1000.30
2018-07-23T00:03:18.101Z,1000.34
2018-07-23T00:05:11.152Z,1000.35
2018-07-23T00:06:11.047Z,1000.31
2018-07-23T00:08:03.932Z,1000.26
2018-07-23T00:09:03.975Z,1000.26
2018-07-23T00:10:56.917Z,1000.26
2018-07-23T00:11:56.877Z,1000.29
2018-07-23T00:13:49.795Z,1000.33
2018-07-23T00:14:49.794Z,1000.39
2018-07-23T00:16:42.839Z,1000.42
2018-07-23T00:17:42.734Z,1000.42
2018-07-23T00:19:35.713Z,1000.46
2018-07-23T00:20:35.669Z,1000.48
2018-07-23T00:22:28.703Z,1000.51
2018-07-23T00:23:28.630Z,1000.49
2018-07-23T00:25:21.584Z,1000.51
2018-07-23T00:26:21.529Z,1000.52
2018-07-23T00:28:14.564Z,1000.54
2018-07-23T00:29:14.462Z,1000.59
2018-07-23T00:31:07.360Z,1000.57
2018-07-23T00:32:07.386Z,1000.59
2018-07-23T00:34:39.719Z,1000.58
2018-07-23T00:35:00.319Z,1000.58
2018-07-23T00:36:53.235Z,1000.59
2018-07-23T00:37:53.251Z,1000.61
2018-07-23T00:39:46.411Z,1000.64
2018-07-23T00:40:46.402Z,1000.67
2018-07-23T00:42:39.286Z,1000.67
2018-07-23T00:43:39.301Z,1000.69
2018-07-23T00:45:32.335Z,1000.71
2018-07-23T00:46:32.232Z,1000.71
2018-07-23T00:48:25.149Z,1000.76
2018-07-23T00:49:25.210Z,1000.78
2018-07-23T00:51:18.203Z,1000.80
2018-07-23T00:52:18.093Z,1000.80
2018-07-23T00:54:11.034Z,1000.83
2018-07-23T00:55:11.014Z,1000.87
2018-07-23T00:57:04.078Z,1000.89
2018-07-23T00:58:03.954Z,1000.92
2018-07-23T00:59:56.869Z,1000.89
2018-07-23T01:00:56.927Z,1000.89
2018-07-23T01:02:55.183Z,1000.90
2018-07-23T01:03:49.810Z,1000.96
2018-07-23T01:05:43.293Z,1000.98
2018-07-23T01:06:42.746Z,1000.99
2018-07-23T01:08:35.783Z,1001.00
2018-07-23T01:09:35.791Z,1001.00
2018-07-23T01:11:28.586Z,1001.02
2018-07-23T01:12:28.627Z,1001.03
2018-07-23T01:14:21.634Z,1001.07
2018-07-23T01:15:21.558Z,1001.11
2018-07-23T01:17:14.453Z,1001.11
2018-07-23T01:18:14.497Z,1001.12
2018-07-23T01:20:07.581Z,1001.13
2018-07-23T01:21:07.440Z,1001.13
2018-07-23T01:23:00.325Z,1001.15
2018-07-23T01:24:00.334Z,1001.14
2018-07-23T01:25:53.633Z,1001.14
2018-07-23T01:26:53.280Z,1001.12
2018-07-23T01:28:46.179Z,1001.13
2018-07-23T01:29:46.193Z,1001.12
2018-07-23T01:31:39.479Z,1001.10
2018-07-23T01:32:39.151Z,1001.14
2018-07-23T01:34:32.040Z,1001.14
2018-07-23T01:35:32.054Z,1001.15
2018-07-23T01:37:25.583Z,1001.12
2018-07-23T01:38:25.028Z,1001.10
2018-07-23T01:40:17.905Z,1001.11
2018-07-23T01:41:17.921Z,1001.13
2018-07-23T01:43:10.960Z,1001.09
2018-07-23T01:44:10.863Z,1001.06
2018-07-23T01:46:03.806Z,1001.10
2018-07-23T01:47:03.817Z,1001.05
2018-07-23T01:48:56.833Z,1001.08
2018-07-23T01:49:56.719Z,1001.11
2018-07-23T01:51:49.665Z,1001.15
2018-07-23T01:52:49.652Z,1001.12
2018-07-23T01:54:42.686Z,1001.13
2018-07-23T01:55:42.613Z,1001.16
2018-07-23T01:57:35.497Z,1001.17
2018-07-23T01:58:35.542Z,1001.17
2018-07-23T02:00:39.267Z,1001.18
2018-07-23T02:01:28.473Z,1001.16
2018-07-23T02:03:21.363Z,1001.15
2018-07-23T02:04:21.382Z,1001.20
2018-07-23T02:06:14.420Z,1001.19
2018-07-23T02:07:14.316Z,1001.15
2018-07-23T02:09:07.795Z,1001.13
2018-07-23T02:10:07.250Z,1001.15
2018-07-23T02:12:00.393Z,1001.15
2018-07-23T02:13:00.256Z,1001.18
2018-07-23T02:14:53.172Z,1001.13
2018-07-23T02:15:53.178Z,1001.15
2018-07-23T02:17:46.299Z,1001.12
2018-07-23T02:18:46.109Z,1001.15
2018-07-23T02:20:39.070Z,1001.19
2018-07-23T02:21:39.066Z,1001.15
2018-07-23T02:23:32.761Z,1001.21
2018-07-23T02:24:32.002Z,1001.22
2018-07-23T02:26:24.917Z,1001.20
2018-07-23T02:27:24.963Z,1001.19
2018-07-23T02:29:18.164Z,1001.18
2018-07-23T02:30:17.877Z,1001.13
2018-07-23T02:32:10.784Z,1001.14
2018-07-23T02:33:10.805Z,1001.13
2018-07-23T02:36:35.317Z,1001.13
2018-07-23T02:37:35.354Z,1001.12
2018-07-23T02:39:28.264Z,1001.10
2018-07-23T02:40:28.322Z,1001.08
2018-07-23T02:42:21.260Z,1001.05
2018-07-23T02:43:21.210Z,1001.04
2018-07-23T02:45:14.130Z,1001.07
2018-07-23T02:46:14.145Z,1001.04
2018-07-23T02:48:07.200Z,1001.04
2018-07-23T02:49:07.091Z,1001.01
2018-07-23T02:51:00.027Z,1001.09
2018-07-23T02:52:00.023Z,1001.04
2018-07-23T02:53:53.645Z,1001.06
2018-07-23T02:54:52.943Z,1001.07
2018-07-23T02:56:45.898Z,1001.07
2018-07-23T02:57:45.865Z,1001.08
2018-07-23T02:59:39.453Z,1001.04
2018-07-23T03:00:38.815Z,1000.98
2018-07-23T03:02:31.761Z,1001.01
2018-07-23T03:03:31.749Z,1000.98
2018-07-23T03:05:24.822Z,1000.98
2018-07-23T03:06:24.717Z,1000.99
2018-07-23T03:08:17.592Z,1000.98
2018-07-23T03:09:17.620Z,1001.00
2018-07-23T03:11:10.667Z,1001.01
2018-07-23T03:12:10.541Z,1001.07
2018-07-23T03:14:03.474Z,1001.02
2018-07-23T03:15:03.488Z,1000.98
2018-07-23T03:16:56.693Z,1000.98
2018-07-23T03:17:56.427Z,1000.98
2018-07-23T03:19:49.345Z,1000.97
2018-07-23T03:20:49.365Z,1000.91
2018-07-23T03:22:42.393Z,1000.94
2018-07-23T03:23:42.297Z,1000.94
2018-07-23T03:25:35.226Z,1000.92
2018-07-23T03:26:35.254Z,1000.88
2018-07-23T03:28:28.302Z,1000.86
2018-07-23T03:29:28.185Z,1000.83
2018-07-23T03:31:21.112Z,1000.80
2018-07-23T03:32:21.143Z,1000.84
2018-07-23T03:34:14.441Z,1000.84
2018-07-23T03:35:14.105Z,1000.83
2018-07-23T03:37:07.035Z,1000.79
2018-07-23T03:38:07.055Z,1000.79
2018-07-23T03:40:00.099Z,1000.73
2018-07-23T03:40:59.987Z,1000.71
2018-07-23T03:42:52.932Z,1000.71
2018-07-23T03:43:52.933Z,1000.70
2018-07-23T03:46:00.038Z,1000.70
2018-07-23T03:46:45.886Z,1000.62
2018-07-23T03:48:38.782Z,1000.59
2018-07-23T03:49:38.803Z,1000.57
2018-07-23T03:51:31.880Z,1000.55
2018-07-23T03:52:31.729Z,1000.53
2018-07-23T03:54:24.657Z,1000.51
2018-07-23T03:55:24.661Z,1000.54
2018-07-23T03:57:17.729Z,1000.50
2018-07-23T03:58:17.601Z,1000.54
2018-07-23T04:00:10.519Z,1000.53
2018-07-23T04:01:10.539Z,1000.50
2018-07-23T04:03:03.580Z,1000.51
2018-07-23T04:04:03.470Z,1000.48
2018-07-23T04:05:56.424Z,1000.42
2018-07-23T04:06:56.412Z,1000.42
2018-07-23T04:08:49.462Z,1000.38
2018-07-23T04:09:49.351Z,1000.39
2018-07-23T04:11:42.272Z,1000.37
2018-07-23T04:12:42.304Z,1000.37
2018-07-23T04:14:35.343Z,1000.33
2018-07-23T04:15:35.226Z,1000.34
2018-07-23T04:17:28.221Z,1000.34
2018-07-23T04:18:28.188Z,1000.30
2018-07-23T04:20:21.456Z,1000.31
2018-07-23T04:21:21.095Z,1000.30
2018-07-23T04:23:14.019Z,1000.22
2018-07-23T04:24:14.040Z,1000.20
2018-07-23T04:26:07.083Z,1000.22
2018-07-23T04:27:06.973Z,1000.20
2018-07-23T04:28:59.955Z,1000.22
2018-07-23T04:29:59.909Z,1000.22
2018-07-23T04:31:53.587Z,1000.23
2018-07-23T04:32:52.849Z,1000.19
2018-07-23T04:34:45.773Z,1000.20
2018-07-23T04:35:45.784Z,1000.19
2018-07-23T04:37:38.856Z,1000.16
2018-07-23T04:38:38.712Z,1000.12
2018-07-23T04:40:31.671Z,1000.17
2018-07-23T04:41:31.662Z,1000.17
2018-07-23T04:43:24.734Z,1000.15
2018-07-23T04:44:24.605Z,1000.12
2018-07-23T04:46:17.516Z,1000.11
2018-07-23T04:47:17.532Z,1000.09
2018-07-23T04:49:10.613Z,1000.12
2018-07-23T04:50:10.503Z,1000.08
2018-07-23T04:52:03.390Z,1000.07
2018-07-23T04:53:03.458Z,1000.06
2018-07-23T04:54:56.444Z,1000.03
2018-07-23T04:55:56.381Z,1000.02
2018-07-23T04:57:49.301Z,999.98
2018-07-23T04:58:49.292Z,999.99
2018-07-23T05:00:42.338Z,999.98
2018-07-23T05:01:42.229Z,999.96
2018-07-23T05:03:35.141Z,999.95
2018-07-23T05:04:35.160Z,999.97
2018-07-23T05:06:28.261Z,999.91
2018-07-23T05:07:28.127Z,999.94
2018-07-23T05:09:21.028Z,999.92
2018-07-23T05:10:21.037Z,999.92
2018-07-23T05:12:14.107Z,999.87
2018-07-23T05:13:13.971Z,999.85
2018-07-23T05:15:06.890Z,999.81
2018-07-23T05:16:06.980Z,999.78
2018-07-23T05:18:00.171Z,999.82
2018-07-23T05:18:59.849Z,999.80
2018-07-23T05:20:52.772Z,999.74
2018-07-23T05:21:52.905Z,999.77
2018-07-23T05:23:45.914Z,999.74
2018-07-23T05:24:45.714Z,999.74
2018-07-23T05:26:38.670Z,999.76
2018-07-23T05:27:38.663Z,999.75
2018-07-23T05:29:52.710Z,999.69
2018-07-23T05:30:31.607Z,999.71
2018-07-23T05:32:24.521Z,999.63
2018-07-23T05:33:24.552Z,999.63
2018-07-23T05:35:17.818Z,999.63
2018-07-23T05:36:17.513Z,999.66
2018-07-23T05:38:10.446Z,999.65
2018-07-23T05:39:10.426Z,999.64
2018-07-23T05:41:03.472Z,999.58
2018-07-23T05:42:03.352Z,999.58
2018-07-23T05:43:56.295Z,999.52
2018-07-23T05:44:56.310Z,999.52
2018-07-23T05:46:49.397Z,999.47
2018-07-23T05:47:49.281Z,999.45
2018-07-23T05:49:42.172Z,999.41
2018-07-23T05:50:42.220Z,999.44
2018-07-23T05:52:35.219Z,999.36
2018-07-23T05:53:35.129Z,999.37
2018-07-23T05:55:28.081Z,999.32
2018-07-23T05:56:28.068Z,999.32
2018-07-23T05:58:21.137Z,999.29
2018-07-23T05:59:21.035Z,999.27
2018-07-23T06:01:13.968Z,999.28
2018-07-23T06:02:13.964Z,999.21
2018-07-23T06:04:06.996Z,999.20
2018-07-23T06:05:06.911Z,999.13
2018-07-23T06:06:59.964Z,999.14
2018-07-23T06:07:59.879Z,999.08
2018-07-23T06:09:52.933Z,999.07
2018-07-23T06:10:52.827Z,999.09
2018-07-23T06:12:45.819Z,998.99
2018-07-23T06:13:45.768Z,999.00
2018-07-23T06:15:38.777Z,998.96
2018-07-23T06:16:38.712Z,998.90
2018-07-23T06:18:31.621Z,998.88
2018-07-23T06:19:31.630Z,998.82
2018-07-23T06:21:24.685Z,998.86
2018-07-23T06:22:24.572Z,998.84
2018-07-23T06:24:17.489Z,998.79
2018-07-23T06:25:17.508Z,998.79
2018-07-23T06:27:10.709Z,998.75
2018-07-23T06:28:10.447Z,998.72
2018-07-23T06:30:03.454Z,998.66
2018-07-23T06:31:03.429Z,998.62
2018-07-23T06:32:56.432Z,998.59
2018-07-23T06:33:56.400Z,998.54
2018-07-23T06:35:49.256Z,998.49
2018-07-23T06:36:49.308Z,998.55
2018-07-23T06:38:42.351Z,998.50
2018-07-23T06:39:42.232Z,998.45
2018-07-23T06:41:35.169Z,998.41
2018-07-23T06:42:35.169Z,998.39
2018-07-23T06:44:28.137Z,998.31
2018-07-23T06:45:28.104Z,998.33
2018-07-23T06:47:21.027Z,998.33
2018-07-23T06:48:21.075Z,998.35
2018-07-23T06:50:27.668Z,998.31
2018-07-23T06:51:13.991Z,998.33
2018-07-23T06:53:06.944Z,998.27
2018-07-23T06:54:07.037Z,998.27
2018-07-23T06:55:59.976Z,998.25
2018-07-23T06:56:59.875Z,998.24
2018-07-23T06:58:52.806Z,998.23
2018-07-23T06:59:52.815Z,998.25
2018-07-23T07:01:45.874Z,998.24
2018-07-23T07:02:45.757Z,998.23
2018-07-23T07:04:38.711Z,998.16
2018-07-23T07:05:38.724Z,998.14
2018-07-23T07:07:32.742Z,998.06
2018-07-23T07:08:32.642Z,998.03
2018-07-23T07:10:25.542Z,997.94
2018-07-23T07:11:25.648Z,997.94
2018-07-23T07:13:18.587Z,997.92
2018-07-23T07:14:18.504Z,997.91
2018-07-23T07:16:11.423Z,997.86
2018-07-23T07:17:11.444Z,997.84
2018-07-23T07:19:09.544Z,997.80
2018-07-23T07:20:04.384Z,997.81
2018-07-23T07:21:57.309Z,997.74
2018-07-23T07:22:57.341Z,997.73
2018-07-23T07:24:50.378Z,997.65
2018-07-23T07:25:50.256Z,997.65
2018-07-23T07:27:43.195Z,997.63
2018-07-23T07:28:43.241Z,997.64
2018-07-23T07:30:36.253Z,997.60
2018-07-23T07:31:36.161Z,997.61
2018-07-23T07:33:29.103Z,997.59
2018-07-23T07:34:29.124Z,997.60
2018-07-23T07:36:22.393Z,997.61
2018-07-23T07:37:22.125Z,997.63
2018-07-23T07:39:15.001Z,997.58
2018-07-23T07:40:15.046Z,997.55
2018-07-23T07:42:08.112Z,997.47
2018-07-23T07:43:07.954Z,997.43
2018-07-23T07:45:00.913Z,997.40
2018-07-23T07:46:00.908Z,997.38
2018-07-23T07:47:54.130Z,997.39
2018-07-23T07:48:53.883Z,997.36
2018-07-23T07:50:47.748Z,997.27
2018-07-23T07:51:47.775Z,997.26
2018-07-23T07:53:41.010Z,997.16
2018-07-23T07:54:40.718Z,997.17
2018-07-23T07:56:33.679Z,997.14
2018-07-23T07:57:33.694Z,997.18
2018-07-23T07:59:26.670Z,997.25
2018-07-23T08:00:26.611Z,997.32
2018-07-23T08:02:19.523Z,997.40
2018-07-23T08:03:19.548Z,997.35
2018-07-23T08:05:12.774Z,997.44
2018-07-23T08:06:12.489Z,997.52
2018-07-23T08:08:05.412Z,997.67
2018-07-23T08:09:05.439Z,997.55
2018-07-23T08:10:58.634Z,997.45
2018-07-23T08:11:58.374Z,997.37
2018-07-23T08:13:51.299Z,997.28
2018-07-23T08:14:51.321Z,997.16
2018-07-23T08:16:44.582Z,997.14
2018-07-23T08:17:44.283Z,997.11
2018-07-23T08:19:37.185Z,997.10
2018-07-23T08:20:37.199Z,997.08
2018-07-23T08:22:30.425Z,997.12
2018-07-23T08:23:30.137Z,997.15
2018-07-23T08:25:23.151Z,997.22
2018-07-23T08:26:23.095Z,997.28
2018-07-23T08:28:16.120Z,997.34
2018-07-23T08:29:16.032Z,997.33
2018-07-23T08:31:08.959Z,997.27
2018-07-23T08:32:09.073Z,997.28
2018-07-23T08:34:13.081Z,997.21
2018-07-23T08:35:01.935Z,997.13
2018-07-23T08:36:54.858Z,997.08
2018-07-23T08:37:54.899Z,997.01
2018-07-23T08:39:48.108Z,996.99
2018-07-23T08:40:47.868Z,997.03
2018-07-23T08:42:40.745Z,996.96
2018-07-23T08:43:40.763Z,996.96
2018-07-23T08:45:33.991Z,996.99
2018-07-23T08:46:33.712Z,996.97
2018-07-23T08:48:26.627Z,996.99
2018-07-23T08:49:26.679Z,997.02
2018-07-23T08:51:19.757Z,997.04
2018-07-23T08:52:19.613Z,997.05
2018-07-23T08:54:12.513Z,997.13
2018-07-23T08:55:12.555Z,997.10
2018-07-23T08:57:05.583Z,997.04
2018-07-23T08:58:05.473Z,996.97
2018-07-23T08:59:58.394Z,996.93
2018-07-23T09:00:58.416Z,996.89
2018-07-23T09:02:51.636Z,996.78
2018-07-23T09:03:51.355Z,996.76
2018-07-23T09:05:44.272Z,996.74
2018-07-23T09:06:44.320Z,996.88
2018-07-23T09:08:37.413Z,996.97
2018-07-23T09:09:37.269Z,996.90
2018-07-23T09:11:30.167Z,996.96
2018-07-23T09:12:30.180Z,996.95
2018-07-23T09:14:23.152Z,997.02
2018-07-23T09:15:23.119Z,997.02
2018-07-23T09:17:16.156Z,996.99
2018-07-23T09:18:16.093Z,996.94
2018-07-23T09:20:09.033Z,996.90
2018-07-23T09:21:09.002Z,996.85
2018-07-23T09:23:01.921Z,996.81
2018-07-23T09:24:01.941Z,996.87
2018-07-23T09:25:55.015Z,996.90
2018-07-23T09:26:54.898Z,996.91
2018-07-23T09:28:47.860Z,996.92
2018-07-23T09:29:47.811Z,996.88
2018-07-23T09:31:40.862Z,996.81
2018-07-23T09:32:40.748Z,996.79
2018-07-23T09:34:33.685Z,996.74
2018-07-23T09:35:33.703Z,996.80
2018-07-23T09:37:26.927Z,996.86
2018-07-23T09:38:26.640Z,996.85
2018-07-23T09:40:19.596Z,996.87
2018-07-23T09:41:19.569Z,996.88
2018-07-23T09:43:12.564Z,996.87
2018-07-23T09:44:12.530Z,996.87
2018-07-23T09:46:05.435Z,996.93
2018-07-23T09:47:05.552Z,996.95
2018-07-23T09:48:58.492Z,996.97
2018-07-23T09:49:58.388Z,997.02
2018-07-23T09:51:51.336Z,997.05
2018-07-23T09:52:51.353Z,997.05
2018-07-23T09:54:44.476Z,997.02
2018-07-23T09:55:44.391Z,996.98
2018-07-23T09:57:37.213Z,996.91
2018-07-23T09:58:37.230Z,996.91
2018-07-23T10:00:30.276Z,996.91
2018-07-23T10:01:30.199Z,996.96
2018-07-23T10:03:23.207Z,997.08
2018-07-23T10:04:23.157Z,997.12
2018-07-23T10:06:16.320Z,997.17
2018-07-23T10:07:16.039Z,997.18
2018-07-23T10:09:08.949Z,997.14
2018-07-23T10:10:09.047Z,997.18
2018-07-23T10:12:02.192Z,997.29
2018-07-23T10:13:02.018Z,997.34
2018-07-23T10:14:54.929Z,997.32
2018-07-23T10:15:54.951Z,997.25
2018-07-23T10:17:47.985Z,997.24
2018-07-23T10:18:47.879Z,997.28
2018-07-23T10:20:40.768Z,997.21
2018-07-23T10:21:40.787Z,997.24
2018-07-23T10:23:33.855Z,997.27
2018-07-23T10:24:33.727Z,997.33
2018-07-23T10:26:26.837Z,997.29
2018-07-23T10:27:26.972Z,997.26
2018-07-23T10:29:19.860Z,997.24
2018-07-23T10:30:19.844Z,997.17
2018-07-23T10:32:12.753Z,997.15
2018-07-23T10:33:12.879Z,997.10
2018-07-23T10:35:05.853Z,997.11
2018-07-23T10:36:05.743Z,997.12
2018-07-23T10:37:58.622Z,997.13
2018-07-23T10:38:58.639Z,997.16
2018-07-23T10:40:51.697Z,997.18
2018-07-23T10:41:51.612Z,997.16
2018-07-23T10:43:44.573Z,997.19
2018-07-23T10:44:44.559Z,997.24
2018-07-23T10:46:37.496Z,997.23
2018-07-23T10:47:37.517Z,997.25
2018-07-23T10:49:30.410Z,997.26
2018-07-23T10:50:30.406Z,997.28
2018-07-23T10:52:23.470Z,997.32
2018-07-23T10:53:23.344Z,997.32
2018-07-23T10:55:16.264Z,997.32
2018-07-23T10:56:16.388Z,997.32
2018-07-23T10:58:09.364Z,997.27
2018-07-23T10:59:09.220Z,997.31
2018-07-23T11:01:02.168Z,997.33
2018-07-23T11:02:02.163Z,997.33
2018-07-23T11:03:55.207Z,997.37
2018-07-23T11:04:55.100Z,997.40
2018-07-23T11:06:48.078Z,997.43
2018-07-23T11:07:48.039Z,997.45
2018-07-23T11:09:41.145Z,997.55
2018-07-23T11:10:40.978Z,997.56
2018-07-23T11:12:33.907Z,997.62
2018-07-23T11:13:33.912Z,997.60
2018-07-23T11:15:27.040Z,997.64
2018-07-23T11:16:26.882Z,997.62
2018-07-23T11:18:19.792Z,997.61
2018-07-23T11:19:19.916Z,997.67
2018-07-23T11:21:12.910Z,997.64
2018-07-23T11:22:12.781Z,997.62
2018-07-23T11:24:05.753Z,997.63
2018-07-23T11:25:38.415Z,997.67
2018-07-23T11:26:58.715Z,997.72
2018-07-23T11:27:58.628Z,997.73
2018-07-23T11:29:51.579Z,997.76
2018-07-23T11:30:51.587Z,997.79
2018-07-23T11:32:44.629Z,997.85
2018-07-23T11:33:44.537Z,997.87
2018-07-23T11:35:37.448Z,997.86
2018-07-23T11:36:37.448Z,997.82
2018-07-23T11:38:30.486Z,997.81
2018-07-23T11:39:30.443Z,997.82
2018-07-23T11:41:23.297Z,997.83
2018-07-23T11:42:23.347Z,997.85
2018-07-23T11:44:16.333Z,997.98
2018-07-23T11:45:16.412Z,997.99
2018-07-23T11:47:09.223Z,998.04
2018-07-23T11:48:09.200Z,998.02
2018-07-23T11:50:02.171Z,998.06
2018-07-23T11:51:02.127Z,998.09
2018-07-23T11:52:55.085Z,998.11
2018-07-23T11:53:55.057Z,998.13
2018-07-23T11:55:48.042Z,998.23
2018-07-23T11:56:48.092Z,998.29
2018-07-23T11:58:40.999Z,998.30
2018-07-23T11:59:40.972Z,998.35
2018-07-23T12:01:33.983Z,998.42
2018-07-23T12:02:33.867Z,998.43
2018-07-23T12:04:26.908Z,998.44
2018-07-23T12:05:26.820Z,998.52
2018-07-23T12:07:20.140Z,998.54
2018-07-23T12:08:19.774Z,998.60
2018-07-23T12:10:12.693Z,998.66
2018-07-23T12:11:12.709Z,998.67
2018-07-23T12:13:06.376Z,998.72
2018-07-23T12:14:05.645Z,998.72
2018-07-23T12:15:58.574Z,998.79
2018-07-23T12:16:58.580Z,998.78
2018-07-23T12:18:51.603Z,998.76
2018-07-23T12:19:51.519Z,998.80
2018-07-23T12:21:44.466Z,998.81
2018-07-23T12:22:44.459Z,998.84
2018-07-23T12:26:09.015Z,998.81
2018-07-23T12:27:09.031Z,998.78
2018-07-23T12:29:01.925Z,998.84
2018-07-23T12:30:01.931Z,998.87
2018-07-23T12:31:55.163Z,998.85
2018-07-23T12:32:54.902Z,998.86
2018-07-23T12:34:47.791Z,998.79
2018-07-23T12:35:47.795Z,998.73
2018-07-23T12:37:54.897Z,998.77
2018-07-23T12:38:40.745Z,998.78
2018-07-23T12:40:33.690Z,998.83
2018-07-23T12:41:33.683Z,998.84
2018-07-23T12:43:26.887Z,998.87
2018-07-23T12:44:26.640Z,998.86
2018-07-23T12:46:19.566Z,998.90
2018-07-23T12:47:19.631Z,998.94
2018-07-23T12:49:12.600Z,998.94
2018-07-23T12:50:12.480Z,998.94
2018-07-23T12:52:05.430Z,999.00
2018-07-23T12:53:05.418Z,999.00
2018-07-23T12:55:02.536Z,999.06
2018-07-23T12:55:58.376Z,999.07
2018-07-23T12:57:51.271Z,999.09
2018-07-23T12:58:51.283Z,999.13
2018-07-23T13:00:49.388Z,999.14
2018-07-23T13:01:44.219Z,999.13
2018-07-23T13:03:37.150Z,999.13
2018-07-23T13:04:37.178Z,999.11
2018-07-23T13:06:30.376Z,999.10
2018-07-23T13:07:30.105Z,999.06
2018-07-23T13:09:23.590Z,999.04
2018-07-23T13:10:23.073Z,998.99
2018-07-23T13:12:16.274Z,998.97
2018-07-23T13:13:15.974Z,998.99
2018-07-23T13:15:08.891Z,999.03
2018-07-23T13:16:08.911Z,999.06
2018-07-23T13:18:09.481Z,999.07
2018-07-23T13:19:01.942Z,999.07
2018-07-23T13:20:54.788Z,999.05
2018-07-23T13:21:54.903Z,999.07
2018-07-23T13:23:48.108Z,999.06
2018-07-23T13:24:47.754Z,999.07
2018-07-23T13:26:40.675Z,999.05
2018-07-23T13:27:40.664Z,999.01
2018-07-23T13:29:34.352Z,999.03
2018-07-23T13:30:33.618Z,999.06
2018-07-23T13:32:26.544Z,999.02
2018-07-23T13:33:26.560Z,999.05
2018-07-23T13:35:19.755Z,999.07
2018-07-23T13:36:19.461Z,999.11
2018-07-23T13:38:12.420Z,999.07
2018-07-23T13:39:12.403Z,999.11
2018-07-23T13:41:05.369Z,999.20
2018-07-23T13:42:05.436Z,999.23
2018-07-23T13:43:58.343Z,999.31
2018-07-23T13:44:58.265Z,999.34
2018-07-23T13:46:51.337Z,999.40
2018-07-23T13:47:51.195Z,999.43
2018-07-23T13:49:44.118Z,999.47
2018-07-23T13:50:44.163Z,999.46
2018-07-23T13:52:37.172Z,999.49
2018-07-23T13:53:37.067Z,999.49
2018-07-23T13:55:30.008Z,999.49
2018-07-23T13:56:30.024Z,999.50
2018-07-23T13:58:22.991Z,999.51
2018-07-23T13:59:22.958Z,999.55
2018-07-23T14:01:15.881Z,999.59
2018-07-23T14:02:15.850Z,999.63
2018-07-23T14:04:08.932Z,999.65
2018-07-23T14:05:08.798Z,999.67
2018-07-23T14:07:01.719Z,999.69
2018-07-23T14:08:01.742Z,999.68
2018-07-23T14:09:54.769Z,999.75
2018-07-23T14:10:54.666Z,999.75
2018-07-23T14:12:47.593Z,999.79
2018-07-23T14:13:47.601Z,999.83
2018-07-23T14:15:40.692Z,999.86
2018-07-23T14:16:40.536Z,999.90
2018-07-23T14:18:33.452Z,999.89
2018-07-23T14:19:33.503Z,999.91
2018-07-23T14:21:26.556Z,999.92
2018-07-23T14:22:26.468Z,999.91
2018-07-23T14:24:19.329Z,999.93
2018-07-23T14:25:19.335Z,999.97
2018-07-23T14:27:13.453Z,999.98
2018-07-23T14:28:13.266Z,1000.05
2018-07-23T14:30:06.217Z,1000.14
2018-07-23T14:31:06.192Z,1000.17
2018-07-23T14:33:02.315Z,1000.20
2018-07-23T14:33:59.155Z,1000.24
2018-07-23T14:35:52.086Z,1000.19
2018-07-23T14:36:52.094Z,1000.19
2018-07-23T14:38:45.289Z,1000.16
2018-07-23T14:39:44.996Z,1000.16
2018-07-23T14:41:37.948Z,1000.20
2018-07-23T14:42:37.959Z,1000.23
2018-07-23T14:44:30.945Z,1000.30
2018-07-23T14:45:30.885Z,1000.32
2018-07-23T14:47:24.338Z,1000.35
2018-07-23T14:48:23.790Z,1000.36
2018-07-23T14:50:16.828Z,1000.35
2018-07-23T14:51:16.724Z,1000.39
2018-07-23T14:53:09.643Z,1000.39
2018-07-23T14:54:09.694Z,1000.43
2018-07-23T14:56:02.618Z,1000.42
2018-07-23T14:57:02.598Z,1000.43
2018-07-23T14:58:55.508Z,1000.48
2018-07-23T14:59:55.534Z,1000.48
2018-07-23T15:01:48.618Z,1000.52
2018-07-23T15:02:48.494Z,1000.57
2018-07-23T15:04:41.383Z,1000.56
2018-07-23T15:05:41.397Z,1000.55
2018-07-23T15:07:34.436Z,1000.54
2018-07-23T15:08:34.330Z,1000.54
2018-07-23T15:10:27.249Z,1000.52
2018-07-23T15:11:27.328Z,1000.44
2018-07-23T15:13:20.307Z,1000.48
2018-07-23T15:14:20.196Z,1000.44
2018-07-23T15:16:13.149Z,1000.42
2018-07-23T15:17:13.135Z,1000.43
2018-07-23T15:19:06.116Z,1000.36
2018-07-23T15:20:06.095Z,1000.37
2018-07-23T15:21:59.041Z,1000.34
2018-07-23T15:22:59.009Z,1000.41
2018-07-23T15:24:52.043Z,1000.44
2018-07-23T15:25:51.939Z,1000.43
2018-07-23T15:27:44.855Z,1000.46
2018-07-23T15:28:44.871Z,1000.47
2018-07-23T15:30:37.942Z,1000.50
2018-07-23T15:31:37.805Z,1000.55
2018-07-23T15:33:30.717Z,1000.56
2018-07-23T15:34:30.733Z,1000.57
2018-07-23T15:36:23.979Z,1000.56
2018-07-23T15:37:23.671Z,1000.56
2018-07-23T15:39:16.614Z,1000.56
2018-07-23T15:40:16.667Z,1000.54
2018-07-23T15:42:09.890Z,1000.53
2018-07-23T15:43:09.566Z,1000.50
2018-07-23T15:45:02.470Z,1000.46
2018-07-23T15:46:02.589Z,1000.43
2018-07-23T15:47:55.493Z,1000.47
2018-07-23T15:48:55.401Z,1000.49
2018-07-23T15:50:48.341Z,1000.53
2018-07-23T15:51:48.372Z,1000.54
2018-07-23T15:53:41.374Z,1000.53
2018-07-23T15:54:41.261Z,1000.53
2018-07-23T15:56:34.182Z,1000.48
2018-07-23T15:57:34.197Z,1000.49
2018-07-23T15:59:27.174Z,1000.52
2018-07-23T16:00:27.136Z,1000.50
2018-07-23T16:02:20.058Z,1000.44
2018-07-23T16:03:20.072Z,1000.41
2018-07-23T16:05:13.382Z,1000.37
2018-07-23T16:06:13.001Z,1000.39
2018-07-23T16:08:05.950Z,1000.36
2018-07-23T16:09:05.931Z,1000.34
2018-07-23T16:10:59.021Z,1000.30
2018-07-23T16:11:58.863Z,1000.35
2018-07-23T16:13:51.782Z,1000.34
2018-07-23T16:14:51.825Z,1000.32
2018-07-23T16:16:44.864Z,1000.34
2018-07-23T16:17:44.731Z,1000.39
2018-07-23T16:19:37.645Z,1000.40
2018-07-23T16:20:37.660Z,1000.41
2018-07-23T16:23:03.258Z,1000.41
2018-07-23T16:23:30.590Z,1000.37
2018-07-23T16:25:23.523Z,1000.34
2018-07-23T16:26:23.537Z,1000.34
2018-07-23T16:28:16.531Z,1000.28
2018-07-23T16:29:16.457Z,1000.28
2018-07-23T16:31:09.370Z,1000.31
2018-07-23T16:32:09.393Z,1000.28
2018-07-23T16:34:02.649Z,1000.23
2018-07-23T16:35:02.362Z,1000.29
2018-07-23T16:36:55.282Z,1000.26
2018-07-23T16:37:55.265Z,1000.25
2018-07-23T16:41:19.821Z,1000.30
2018-07-23T16:42:19.809Z,1000.31
2018-07-23T16:44:12.741Z,1000.28
2018-07-23T16:45:12.756Z,1000.25
2018-07-23T16:47:05.802Z,1000.22
2018-07-23T16:48:05.686Z,1000.17
2018-07-23T16:49:58.607Z,1000.20
2018-07-23T16:50:58.651Z,1000.16
2018-07-23T16:52:51.680Z,1000.25
2018-07-23T16:53:51.552Z,1000.24
2018-07-23T16:55:44.498Z,1000.27
2018-07-23T16:56:44.513Z,1000.25
2018-07-23T16:58:37.604Z,1000.28
2018-07-23T16:59:37.442Z,1000.28
2018-07-23T17:01:30.428Z,1000.30
2018-07-23T17:02:30.351Z,1000.32
2018-07-23T17:04:23.399Z,1000.38
2018-07-23T17:05:23.315Z,1000.38
2018-07-23T17:07:16.248Z,1000.40
2018-07-23T17:08:16.322Z,1000.33
2018-07-23T17:10:09.481Z,1000.33
2018-07-23T17:11:09.161Z,1000.32
2018-07-23T17:13:02.072Z,1000.29
2018-07-23T17:14:02.114Z,1000.29
2018-07-23T17:15:55.126Z,1000.23
2018-07-23T17:16:55.054Z,1000.19
2018-07-23T17:18:47.922Z,1000.10
2018-07-23T17:19:47.953Z,1000.08
2018-07-23T17:21:41.070Z,1000.01
2018-07-23T17:22:40.903Z,1000.02
2018-07-23T17:24:33.793Z,999.99
2018-07-23T17:25:33.797Z,999.97
2018-07-23T17:27:26.855Z,999.97
2018-07-23T17:28:26.773Z,999.94
2018-07-23T17:30:19.649Z,999.96
2018-07-23T17:31:19.677Z,999.92
2018-07-23T17:33:12.778Z,999.92
2018-07-23T17:34:12.680Z,999.93
2018-07-23T17:36:05.524Z,999.95
2018-07-23T17:37:05.544Z,999.96
2018-07-23T17:38:58.566Z,999.95
2018-07-23T17:39:58.470Z,999.92
2018-07-23T17:41:51.398Z,999.90
2018-07-23T17:42:51.431Z,999.91
2018-07-23T17:44:44.630Z,999.83
2018-07-23T17:45:44.332Z,999.79
2018-07-23T17:47:37.340Z,999.76
2018-07-23T17:48:37.262Z,999.73